Main page
METAR-TAF:

METAR-TAF

Airports :

Zaragoza Airport

Zaragoza, Spain

latitude: 41-40N, longitude: 001-01W, elevation: 263 m

Current weather observation

The report was made 42 minutes ago, at 19:00 UTC
Wind 10 kt from the Southeast
Temperature 18°C
Humidity 49%
Pressure 1021 hPa
Visibility 10 km or more
Few clouds at a height of 8000 ft

METAR: LEZG 191900Z 13010KT 9999 FEW080 18/07 Q1021

Time: 21:42 (19:42 UTC)

Forecast

The report was made 2 hours and 42 minutes ago, at 17:00 UTC
Forecast valid from 19 at 18 UTC to 20 at 18 UTC
Wind 8 kt from the East/Southeast
Visibility 10 km or more
Few clouds at a height of 4000 ft
Temporary
from 19 at 20 UTC to 20 at 12 UTC
Wind 4 kt from variable directions

TAF: LEZG 191700Z 1918/2018 12008KT 9999 FEW040 TX23/2014Z TN10/2006Z TEMPO 1920/2012 VRB04KT

Weather observations and forecasts of more than 4000 airports (METAR and TAF reports).

The available stations are represented by yellow and red dots on the map.

Hover mouse over dot to see the name of the station.

Then click to see weather observations and forecasts.

To change the map : click on the green buttons with a black cross to zoom in, on the green button with a dash to zoom out, or on the green arrows for adjacent maps.


METAR-TAF: